sensor_id;sensor_type;location;lat;lon;timestamp;temperature;humidity
74657;DHT22;63185;45.642;13.764;2022-11-03T00:01:37;18.90;80.60
74657;DHT22;63185;45.642;13.764;2022-11-03T00:04:03;18.90;80.80
74657;DHT22;63185;45.642;13.764;2022-11-03T00:06:29;19.00;80.70
74657;DHT22;63185;45.642;13.764;2022-11-03T00:08:58;19.00;80.40
74657;DHT22;63185;45.642;13.764;2022-11-03T00:11:24;18.90;80.60
74657;DHT22;63185;45.642;13.764;2022-11-03T00:13:50;18.90;80.80
74657;DHT22;63185;45.642;13.764;2022-11-03T00:16:15;18.80;80.80
74657;DHT22;63185;45.642;13.764;2022-11-03T00:18:41;18.90;80.70
74657;DHT22;63185;45.642;13.764;2022-11-03T00:21:07;18.80;80.80
74657;DHT22;63185;45.642;13.764;2022-11-03T00:23:34;18.80;80.70
74657;DHT22;63185;45.642;13.764;2022-11-03T00:28:39;18.80;80.60
74657;DHT22;63185;45.642;13.764;2022-11-03T00:31:08;18.80;80.70
74657;DHT22;63185;45.642;13.764;2022-11-03T00:33:34;18.80;80.60
74657;DHT22;63185;45.642;13.764;2022-11-03T00:36:00;18.80;80.50
74657;DHT22;63185;45.642;13.764;2022-11-03T00:38:27;18.80;80.60
74657;DHT22;63185;45.642;13.764;2022-11-03T00:40:56;18.80;80.60
74657;DHT22;63185;45.642;13.764;2022-11-03T00:43:22;18.80;80.70
74657;DHT22;63185;45.642;13.764;2022-11-03T00:45:48;18.80;80.50
74657;DHT22;63185;45.642;13.764;2022-11-03T00:48:14;18.70;80.60
74657;DHT22;63185;45.642;13.764;2022-11-03T00:51:01;18.80;80.30
74657;DHT22;63185;45.642;13.764;2022-11-03T00:53:28;18.70;80.40
74657;DHT22;63185;45.642;13.764;2022-11-03T00:55:54;18.60;80.30
74657;DHT22;63185;45.642;13.764;2022-11-03T00:58:19;18.70;80.10
74657;DHT22;63185;45.642;13.764;2022-11-03T01:00:45;18.70;79.80
74657;DHT22;63185;45.642;13.764;2022-11-03T01:03:10;18.70;80.00
74657;DHT22;63185;45.642;13.764;2022-11-03T01:05:42;18.70;79.80
74657;DHT22;63185;45.642;13.764;2022-11-03T01:08:33;18.70;80.00
74657;DHT22;63185;45.642;13.764;2022-11-03T01:11:09;18.70;80.10
74657;DHT22;63185;45.642;13.764;2022-11-03T01:13:53;18.60;80.10
74657;DHT22;63185;45.642;13.764;2022-11-03T01:16:19;18.60;80.40
74657;DHT22;63185;45.642;13.764;2022-11-03T01:18:44;18.60;80.60
74657;DHT22;63185;45.642;13.764;2022-11-03T01:21:10;18.60;80.70
74657;DHT22;63185;45.642;13.764;2022-11-03T01:23:35;18.60;80.70
74657;DHT22;63185;45.642;13.764;2022-11-03T01:26:08;18.60;80.90
74657;DHT22;63185;45.642;13.764;2022-11-03T01:28:34;18.60;80.90
74657;DHT22;63185;45.642;13.764;2022-11-03T01:31:07;18.60;81.00
74657;DHT22;63185;45.642;13.764;2022-11-03T01:33:33;18.60;81.20
74657;DHT22;63185;45.642;13.764;2022-11-03T01:35:59;18.60;81.00
74657;DHT22;63185;45.642;13.764;2022-11-03T01:38:25;18.60;80.60
74657;DHT22;63185;45.642;13.764;2022-11-03T01:40:50;18.50;80.30
74657;DHT22;63185;45.642;13.764;2022-11-03T01:43:16;18.50;80.30
74657;DHT22;63185;45.642;13.764;2022-11-03T01:45:42;18.60;79.60
74657;DHT22;63185;45.642;13.764;2022-11-03T01:48:08;18.50;78.80
74657;DHT22;63185;45.642;13.764;2022-11-03T01:50:35;18.60;78.90
74657;DHT22;63185;45.642;13.764;2022-11-03T01:53:01;18.60;79.00
74657;DHT22;63185;45.642;13.764;2022-11-03T01:55:28;18.60;78.80
74657;DHT22;63185;45.642;13.764;2022-11-03T01:58:01;18.60;78.80
74657;DHT22;63185;45.642;13.764;2022-11-03T02:00:28;18.60;78.80
74657;DHT22;63185;45.642;13.764;2022-11-03T02:02:54;18.60;79.10
74657;DHT22;63185;45.642;13.764;2022-11-03T02:05:20;18.70;79.50
74657;DHT22;63185;45.642;13.764;2022-11-03T02:10:15;18.70;79.30
74657;DHT22;63185;45.642;13.764;2022-11-03T02:12:42;18.70;79.40
74657;DHT22;63185;45.642;13.764;2022-11-03T02:15:08;18.80;78.90
74657;DHT22;63185;45.642;13.764;2022-11-03T02:17:36;18.80;78.10
74657;DHT22;63185;45.642;13.764;2022-11-03T02:20:06;18.80;77.90
74657;DHT22;63185;45.642;13.764;2022-11-03T02:27:37;18.70;79.00
74657;DHT22;63185;45.642;13.764;2022-11-03T02:30:02;18.60;79.40
74657;DHT22;63185;45.642;13.764;2022-11-03T02:32:29;18.70;79.50
74657;DHT22;63185;45.642;13.764;2022-11-03T02:35:02;18.70;79.40
74657;DHT22;63185;45.642;13.764;2022-11-03T02:37:31;18.70;79.60
74657;DHT22;63185;45.642;13.764;2022-11-03T02:40:03;18.70;79.60
74657;DHT22;63185;45.642;13.764;2022-11-03T02:42:30;18.60;79.80
74657;DHT22;63185;45.642;13.764;2022-11-03T02:44:56;18.60;79.90
74657;DHT22;63185;45.642;13.764;2022-11-03T02:47:23;18.70;80.10
74657;DHT22;63185;45.642;13.764;2022-11-03T02:49:51;18.70;80.20
74657;DHT22;63185;45.642;13.764;2022-11-03T02:57:42;18.60;80.10
74657;DHT22;63185;45.642;13.764;2022-11-03T03:00:09;18.60;80.10
74657;DHT22;63185;45.642;13.764;2022-11-03T03:02:37;18.60;79.90
74657;DHT22;63185;45.642;13.764;2022-11-03T03:05:04;18.70;79.90
74657;DHT22;63185;45.642;13.764;2022-11-03T03:07:33;18.60;80.00
74657;DHT22;63185;45.642;13.764;2022-11-03T03:12:25;18.60;79.70
74657;DHT22;63185;45.642;13.764;2022-11-03T03:14:52;18.60;79.30
74657;DHT22;63185;45.642;13.764;2022-11-03T03:22:36;18.40;79.00
74657;DHT22;63185;45.642;13.764;2022-11-03T03:25:18;18.40;78.90
74657;DHT22;63185;45.642;13.764;2022-11-03T03:27:50;18.40;78.80
74657;DHT22;63185;45.642;13.764;2022-11-03T03:30:16;18.30;78.80
74657;DHT22;63185;45.642;13.764;2022-11-03T03:32:43;18.30;79.10
74657;DHT22;63185;45.642;13.764;2022-11-03T03:35:11;18.30;79.50
74657;DHT22;63185;45.642;13.764;2022-11-03T03:37:42;18.20;79.70
74657;DHT22;63185;45.642;13.764;2022-11-03T03:40:09;18.20;79.80
74657;DHT22;63185;45.642;13.764;2022-11-03T03:42:36;18.20;79.90
74657;DHT22;63185;45.642;13.764;2022-11-03T03:45:02;18.20;79.90
74657;DHT22;63185;45.642;13.764;2022-11-03T03:47:29;18.20;79.70
74657;DHT22;63185;45.642;13.764;2022-11-03T03:49:55;18.20;79.30
74657;DHT22;63185;45.642;13.764;2022-11-03T03:52:21;18.20;79.30
74657;DHT22;63185;45.642;13.764;2022-11-03T03:54:47;18.20;79.20
74657;DHT22;63185;45.642;13.764;2022-11-03T03:57:13;18.20;79.10
74657;DHT22;63185;45.642;13.764;2022-11-03T03:59:42;18.20;79.30
74657;DHT22;63185;45.642;13.764;2022-11-03T04:02:08;18.10;79.80
74657;DHT22;63185;45.642;13.764;2022-11-03T04:04:34;18.10;79.90
74657;DHT22;63185;45.642;13.764;2022-11-03T04:06:59;18.10;80.00
74657;DHT22;63185;45.642;13.764;2022-11-03T04:09:43;18.10;80.00
74657;DHT22;63185;45.642;13.764;2022-11-03T04:12:09;18.10;80.20
74657;DHT22;63185;45.642;13.764;2022-11-03T04:14:53;18.10;80.20
74657;DHT22;63185;45.642;13.764;2022-11-03T04:17:41;18.00;80.00
74657;DHT22;63185;45.642;13.764;2022-11-03T04:20:26;18.00;79.90
74657;DHT22;63185;45.642;13.764;2022-11-03T04:23:10;18.00;79.80
74657;DHT22;63185;45.642;13.764;2022-11-03T04:25:36;18.00;79.80
74657;DHT22;63185;45.642;13.764;2022-11-03T04:28:07;18.00;79.90
74657;DHT22;63185;45.642;13.764;2022-11-03T04:30:32;18.00;80.00
74657;DHT22;63185;45.642;13.764;2022-11-03T04:32:58;18.00;79.90
74657;DHT22;63185;45.642;13.764;2022-11-03T04:35:26;18.00;79.90
74657;DHT22;63185;45.642;13.764;2022-11-03T04:38:34;18.00;80.20
74657;DHT22;63185;45.642;13.764;2022-11-03T04:40:45;18.00;79.90
74657;DHT22;63185;45.642;13.764;2022-11-03T04:43:14;17.90;79.80
74657;DHT22;63185;45.642;13.764;2022-11-03T04:45:42;18.00;79.70
74657;DHT22;63185;45.642;13.764;2022-11-03T04:48:10;18.00;79.40
74657;DHT22;63185;45.642;13.764;2022-11-03T04:50:36;18.00;79.40
74657;DHT22;63185;45.642;13.764;2022-11-03T04:53:04;18.00;79.50
74657;DHT22;63185;45.642;13.764;2022-11-03T04:55:33;18.10;79.60
74657;DHT22;63185;45.642;13.764;2022-11-03T04:58:03;18.00;79.70
74657;DHT22;63185;45.642;13.764;2022-11-03T05:00:31;18.00;80.00
74657;DHT22;63185;45.642;13.764;2022-11-03T05:02:56;18.00;80.30
74657;DHT22;63185;45.642;13.764;2022-11-03T05:05:23;18.00;80.60
74657;DHT22;63185;45.642;13.764;2022-11-03T05:07:50;18.00;80.60
74657;DHT22;63185;45.642;13.764;2022-11-03T05:10:17;18.00;80.60
74657;DHT22;63185;45.642;13.764;2022-11-03T05:12:43;18.00;80.70
74657;DHT22;63185;45.642;13.764;2022-11-03T05:15:26;18.00;80.90
74657;DHT22;63185;45.642;13.764;2022-11-03T05:17:55;18.00;80.70
74657;DHT22;63185;45.642;13.764;2022-11-03T05:20:29;18.00;80.70
74657;DHT22;63185;45.642;13.764;2022-11-03T05:22:55;18.00;79.50
74657;DHT22;63185;45.642;13.764;2022-11-03T05:25:34;18.00;79.60
74657;DHT22;63185;45.642;13.764;2022-11-03T05:28:01;18.00;79.70
74657;DHT22;63185;45.642;13.764;2022-11-03T05:30:27;18.10;79.50
74657;DHT22;63185;45.642;13.764;2022-11-03T05:32:52;18.10;79.40
74657;DHT22;63185;45.642;13.764;2022-11-03T05:35:20;18.10;79.40
74657;DHT22;63185;45.642;13.764;2022-11-03T05:37:49;18.10;79.40
74657;DHT22;63185;45.642;13.764;2022-11-03T05:40:20;18.10;79.30
74657;DHT22;63185;45.642;13.764;2022-11-03T05:42:46;18.20;78.70
74657;DHT22;63185;45.642;13.764;2022-11-03T05:45:20;18.20;78.70
74657;DHT22;63185;45.642;13.764;2022-11-03T05:47:47;18.20;78.30
74657;DHT22;63185;45.642;13.764;2022-11-03T05:52:39;18.20;77.60
74657;DHT22;63185;45.642;13.764;2022-11-03T05:55:11;18.20;77.30
74657;DHT22;63185;45.642;13.764;2022-11-03T05:57:39;18.20;77.00
74657;DHT22;63185;45.642;13.764;2022-11-03T06:00:06;18.20;76.90
74657;DHT22;63185;45.642;13.764;2022-11-03T06:02:39;18.20;76.90
74657;DHT22;63185;45.642;13.764;2022-11-03T06:05:17;18.20;76.60
74657;DHT22;63185;45.642;13.764;2022-11-03T06:07:43;18.30;76.20
74657;DHT22;63185;45.642;13.764;2022-11-03T06:10:44;18.30;76.60
74657;DHT22;63185;45.642;13.764;2022-11-03T06:13:03;18.30;76.90
74657;DHT22;63185;45.642;13.764;2022-11-03T06:15:30;18.30;76.70
74657;DHT22;63185;45.642;13.764;2022-11-03T06:17:56;18.30;77.30
74657;DHT22;63185;45.642;13.764;2022-11-03T06:20:22;18.40;77.50
74657;DHT22;63185;45.642;13.764;2022-11-03T06:22:48;18.40;77.80
74657;DHT22;63185;45.642;13.764;2022-11-03T06:27:41;18.40;78.00
74657;DHT22;63185;45.642;13.764;2022-11-03T06:32:38;18.40;78.00
74657;DHT22;63185;45.642;13.764;2022-11-03T06:35:03;18.40;78.10
74657;DHT22;63185;45.642;13.764;2022-11-03T06:37:34;18.40;78.00
74657;DHT22;63185;45.642;13.764;2022-11-03T06:40:00;18.40;78.20
74657;DHT22;63185;45.642;13.764;2022-11-03T06:42:28;18.50;77.90
74657;DHT22;63185;45.642;13.764;2022-11-03T06:44:55;18.50;77.70
74657;DHT22;63185;45.642;13.764;2022-11-03T06:47:24;18.60;77.50
74657;DHT22;63185;45.642;13.764;2022-11-03T06:49:52;18.60;77.40
74657;DHT22;63185;45.642;13.764;2022-11-03T06:54:47;18.60;77.20
74657;DHT22;63185;45.642;13.764;2022-11-03T06:57:12;18.60;76.80
74657;DHT22;63185;45.642;13.764;2022-11-03T06:59:38;18.60;76.10
74657;DHT22;63185;45.642;13.764;2022-11-03T07:02:10;18.60;75.40
74657;DHT22;63185;45.642;13.764;2022-11-03T07:04:45;18.60;75.80
74657;DHT22;63185;45.642;13.764;2022-11-03T07:07:10;18.70;76.20
74657;DHT22;63185;45.642;13.764;2022-11-03T07:09:36;18.70;76.30
74657;DHT22;63185;45.642;13.764;2022-11-03T07:12:01;18.80;76.30
74657;DHT22;63185;45.642;13.764;2022-11-03T07:14:27;18.80;76.50
74657;DHT22;63185;45.642;13.764;2022-11-03T07:16:54;18.80;75.70
74657;DHT22;63185;45.642;13.764;2022-11-03T07:21:47;18.70;76.30
74657;DHT22;63185;45.642;13.764;2022-11-03T07:24:15;18.80;76.20
74657;DHT22;63185;45.642;13.764;2022-11-03T07:26:42;18.80;76.10
74657;DHT22;63185;45.642;13.764;2022-11-03T07:29:15;18.90;75.80
74657;DHT22;63185;45.642;13.764;2022-11-03T07:31:42;19.00;75.80
74657;DHT22;63185;45.642;13.764;2022-11-03T07:34:10;19.10;74.90
74657;DHT22;63185;45.642;13.764;2022-11-03T07:36:37;19.10;75.50
74657;DHT22;63185;45.642;13.764;2022-11-03T07:39:04;19.20;75.70
74657;DHT22;63185;45.642;13.764;2022-11-03T07:41:30;19.20;75.50
74657;DHT22;63185;45.642;13.764;2022-11-03T07:43:57;19.30;75.10
74657;DHT22;63185;45.642;13.764;2022-11-03T07:46:23;19.30;74.70
74657;DHT22;63185;45.642;13.764;2022-11-03T07:48:56;19.40;74.20
74657;DHT22;63185;45.642;13.764;2022-11-03T07:51:23;19.50;73.80
74657;DHT22;63185;45.642;13.764;2022-11-03T07:53:50;19.50;73.30
74657;DHT22;63185;45.642;13.764;2022-11-03T07:56:17;19.50;73.20
74657;DHT22;63185;45.642;13.764;2022-11-03T07:58:43;19.60;73.30
74657;DHT22;63185;45.642;13.764;2022-11-03T08:01:19;19.60;73.20
74657;DHT22;63185;45.642;13.764;2022-11-03T08:03:46;19.70;72.90
74657;DHT22;63185;45.642;13.764;2022-11-03T08:06:11;19.80;72.70
74657;DHT22;63185;45.642;13.764;2022-11-03T08:08:37;19.90;72.60
74657;DHT22;63185;45.642;13.764;2022-11-03T08:11:03;20.10;72.20
74657;DHT22;63185;45.642;13.764;2022-11-03T08:13:29;20.20;71.50
74657;DHT22;63185;45.642;13.764;2022-11-03T08:15:55;20.40;71.10
74657;DHT22;63185;45.642;13.764;2022-11-03T08:18:21;20.50;70.50
74657;DHT22;63185;45.642;13.764;2022-11-03T08:20:46;20.50;70.20
74657;DHT22;63185;45.642;13.764;2022-11-03T08:23:12;20.60;69.30
74657;DHT22;63185;45.642;13.764;2022-11-03T08:25:37;20.70;68.70
74657;DHT22;63185;45.642;13.764;2022-11-03T08:28:03;20.90;68.40
74657;DHT22;63185;45.642;13.764;2022-11-03T08:30:29;20.90;68.20
74657;DHT22;63185;45.642;13.764;2022-11-03T08:32:54;20.90;68.40
74657;DHT22;63185;45.642;13.764;2022-11-03T08:35:20;20.90;68.60
74657;DHT22;63185;45.642;13.764;2022-11-03T08:37:45;20.90;68.50
74657;DHT22;63185;45.642;13.764;2022-11-03T08:40:11;20.90;68.60
74657;DHT22;63185;45.642;13.764;2022-11-03T08:42:37;20.90;68.60
74657;DHT22;63185;45.642;13.764;2022-11-03T08:45:03;20.90;68.90
74657;DHT22;63185;45.642;13.764;2022-11-03T08:47:28;20.90;68.60
74657;DHT22;63185;45.642;13.764;2022-11-03T08:49:54;20.90;68.30
74657;DHT22;63185;45.642;13.764;2022-11-03T08:52:20;21.00;68.60
74657;DHT22;63185;45.642;13.764;2022-11-03T08:54:46;20.90;68.70
74657;DHT22;63185;45.642;13.764;2022-11-03T08:57:11;21.00;68.40
74657;DHT22;63185;45.642;13.764;2022-11-03T08:59:37;21.10;68.40
74657;DHT22;63185;45.642;13.764;2022-11-03T09:02:03;21.20;68.60
74657;DHT22;63185;45.642;13.764;2022-11-03T09:04:28;21.30;68.10
74657;DHT22;63185;45.642;13.764;2022-11-03T09:06:54;21.40;67.30
74657;DHT22;63185;45.642;13.764;2022-11-03T09:09:19;21.50;66.90
74657;DHT22;63185;45.642;13.764;2022-11-03T09:11:46;21.50;67.20
74657;DHT22;63185;45.642;13.764;2022-11-03T09:14:11;21.60;67.40
74657;DHT22;63185;45.642;13.764;2022-11-03T09:16:37;21.70;66.80
74657;DHT22;63185;45.642;13.764;2022-11-03T09:19:02;21.60;66.50
74657;DHT22;63185;45.642;13.764;2022-11-03T09:21:28;21.70;66.20
74657;DHT22;63185;45.642;13.764;2022-11-03T09:23:53;21.70;66.20
74657;DHT22;63185;45.642;13.764;2022-11-03T09:26:19;21.80;65.80
74657;DHT22;63185;45.642;13.764;2022-11-03T09:28:45;21.80;66.20
74657;DHT22;63185;45.642;13.764;2022-11-03T09:31:10;21.80;66.10
74657;DHT22;63185;45.642;13.764;2022-11-03T09:33:36;21.80;66.60
74657;DHT22;63185;45.642;13.764;2022-11-03T09:36:01;21.90;66.50
74657;DHT22;63185;45.642;13.764;2022-11-03T09:38:27;21.90;67.10
74657;DHT22;63185;45.642;13.764;2022-11-03T09:40:53;22.00;67.20
74657;DHT22;63185;45.642;13.764;2022-11-03T09:43:19;22.10;67.40
74657;DHT22;63185;45.642;13.764;2022-11-03T09:45:44;22.10;67.10
74657;DHT22;63185;45.642;13.764;2022-11-03T09:48:10;22.10;67.30
74657;DHT22;63185;45.642;13.764;2022-11-03T09:50:36;22.20;67.80
74657;DHT22;63185;45.642;13.764;2022-11-03T09:53:02;22.20;66.20
74657;DHT22;63185;45.642;13.764;2022-11-03T09:55:28;22.10;66.70
74657;DHT22;63185;45.642;13.764;2022-11-03T09:57:58;21.90;68.50
74657;DHT22;63185;45.642;13.764;2022-11-03T10:00:24;21.60;69.30
74657;DHT22;63185;45.642;13.764;2022-11-03T10:02:51;21.40;70.10
74657;DHT22;63185;45.642;13.764;2022-11-03T10:05:24;21.30;71.40
74657;DHT22;63185;45.642;13.764;2022-11-03T10:07:50;21.30;71.90
74657;DHT22;63185;45.642;13.764;2022-11-03T10:10:17;21.10;72.80
74657;DHT22;63185;45.642;13.764;2022-11-03T10:12:43;21.10;72.90
74657;DHT22;63185;45.642;13.764;2022-11-03T10:15:16;21.30;73.00
74657;DHT22;63185;45.642;13.764;2022-11-03T10:17:43;21.60;72.40
74657;DHT22;63185;45.642;13.764;2022-11-03T10:20:13;21.60;72.70
74657;DHT22;63185;45.642;13.764;2022-11-03T10:22:39;21.60;72.70
74657;DHT22;63185;45.642;13.764;2022-11-03T10:27:49;22.00;71.90
74657;DHT22;63185;45.642;13.764;2022-11-03T10:30:15;21.90;70.60
74657;DHT22;63185;45.642;13.764;2022-11-03T10:32:40;21.80;71.60
74657;DHT22;63185;45.642;13.764;2022-11-03T10:37:50;21.90;71.20
74657;DHT22;63185;45.642;13.764;2022-11-03T10:40:34;22.00;71.00
74657;DHT22;63185;45.642;13.764;2022-11-03T10:43:00;21.90;70.70
74657;DHT22;63185;45.642;13.764;2022-11-03T10:45:26;21.80;71.10
74657;DHT22;63185;45.642;13.764;2022-11-03T10:48:01;21.60;71.80
74657;DHT22;63185;45.642;13.764;2022-11-03T10:50:28;21.60;72.20
74657;DHT22;63185;45.642;13.764;2022-11-03T10:52:54;21.60;71.90
74657;DHT22;63185;45.642;13.764;2022-11-03T10:55:20;21.60;71.90
74657;DHT22;63185;45.642;13.764;2022-11-03T10:57:46;21.20;72.20
74657;DHT22;63185;45.642;13.764;2022-11-03T11:00:17;21.30;72.20
74657;DHT22;63185;45.642;13.764;2022-11-03T11:02:46;21.50;72.00
74657;DHT22;63185;45.642;13.764;2022-11-03T11:07:43;21.60;71.80
74657;DHT22;63185;45.642;13.764;2022-11-03T11:10:16;21.70;72.00
74657;DHT22;63185;45.642;13.764;2022-11-03T11:13:03;21.70;71.00
74657;DHT22;63185;45.642;13.764;2022-11-03T11:18:07;21.90;70.20
74657;DHT22;63185;45.642;13.764;2022-11-03T11:20:34;21.90;71.30
74657;DHT22;63185;45.642;13.764;2022-11-03T11:23:41;21.90;70.80
74657;DHT22;63185;45.642;13.764;2022-11-03T11:31:00;21.80;71.10
74657;DHT22;63185;45.642;13.764;2022-11-03T11:33:27;21.50;71.40
74657;DHT22;63185;45.642;13.764;2022-11-03T11:41:03;21.60;70.50
74657;DHT22;63185;45.642;13.764;2022-11-03T11:43:28;21.70;70.60
74657;DHT22;63185;45.642;13.764;2022-11-03T11:48:38;21.40;71.00
74657;DHT22;63185;45.642;13.764;2022-11-03T11:51:07;21.20;71.70
74657;DHT22;63185;45.642;13.764;2022-11-03T11:53:37;21.20;72.40
74657;DHT22;63185;45.642;13.764;2022-11-03T11:56:04;21.30;69.60
74657;DHT22;63185;45.642;13.764;2022-11-03T12:01:24;21.00;73.00
74657;DHT22;63185;45.642;13.764;2022-11-03T12:06:55;21.00;73.50
74657;DHT22;63185;45.642;13.764;2022-11-03T12:09:22;20.90;74.40
74657;DHT22;63185;45.642;13.764;2022-11-03T12:11:49;21.00;73.30
74657;DHT22;63185;45.642;13.764;2022-11-03T12:16:49;21.20;72.50
74657;DHT22;63185;45.642;13.764;2022-11-03T12:21:59;21.10;72.40
74657;DHT22;63185;45.642;13.764;2022-11-03T12:24:25;20.90;73.20
74657;DHT22;63185;45.642;13.764;2022-11-03T12:26:52;21.00;72.70
74657;DHT22;63185;45.642;13.764;2022-11-03T12:29:17;20.90;72.50
74657;DHT22;63185;45.642;13.764;2022-11-03T12:31:43;20.80;73.10
74657;DHT22;63185;45.642;13.764;2022-11-03T12:34:08;21.20;72.10
74657;DHT22;63185;45.642;13.764;2022-11-03T12:36:34;21.20;70.80
74657;DHT22;63185;45.642;13.764;2022-11-03T12:39:00;21.10;70.50
74657;DHT22;63185;45.642;13.764;2022-11-03T12:41:25;21.00;69.70
74657;DHT22;63185;45.642;13.764;2022-11-03T12:43:51;20.90;69.70
74657;DHT22;63185;45.642;13.764;2022-11-03T12:46:17;20.90;69.90
74657;DHT22;63185;45.642;13.764;2022-11-03T12:48:43;20.90;68.60
74657;DHT22;63185;45.642;13.764;2022-11-03T12:51:27;21.00;68.60
74657;DHT22;63185;45.642;13.764;2022-11-03T12:53:53;21.20;67.90
74657;DHT22;63185;45.642;13.764;2022-11-03T12:56:18;21.40;67.10
74657;DHT22;63185;45.642;13.764;2022-11-03T12:58:44;21.30;67.60
74657;DHT22;63185;45.642;13.764;2022-11-03T13:01:10;21.10;69.70
74657;DHT22;63185;45.642;13.764;2022-11-03T13:03:36;20.90;71.00
74657;DHT22;63185;45.642;13.764;2022-11-03T13:06:02;20.80;71.70
74657;DHT22;63185;45.642;13.764;2022-11-03T13:08:31;20.80;69.70
74657;DHT22;63185;45.642;13.764;2022-11-03T13:10:57;20.80;70.20
74657;DHT22;63185;45.642;13.764;2022-11-03T13:13:23;21.00;70.40
74657;DHT22;63185;45.642;13.764;2022-11-03T13:15:48;20.90;69.80
74657;DHT22;63185;45.642;13.764;2022-11-03T13:18:14;20.70;70.20
74657;DHT22;63185;45.642;13.764;2022-11-03T13:20:39;20.70;70.90
74657;DHT22;63185;45.642;13.764;2022-11-03T13:23:05;20.70;70.80
74657;DHT22;63185;45.642;13.764;2022-11-03T13:25:31;20.60;71.20
74657;DHT22;63185;45.642;13.764;2022-11-03T13:27:56;20.50;72.00
74657;DHT22;63185;45.642;13.764;2022-11-03T13:30:23;20.40;73.00
74657;DHT22;63185;45.642;13.764;2022-11-03T13:32:48;20.30;72.70
74657;DHT22;63185;45.642;13.764;2022-11-03T13:35:14;20.30;73.40
74657;DHT22;63185;45.642;13.764;2022-11-03T13:37:40;20.20;73.90
74657;DHT22;63185;45.642;13.764;2022-11-03T13:40:06;20.20;73.60
74657;DHT22;63185;45.642;13.764;2022-11-03T13:42:32;20.30;73.50
74657;DHT22;63185;45.642;13.764;2022-11-03T13:44:58;20.30;73.50
74657;DHT22;63185;45.642;13.764;2022-11-03T13:47:23;20.30;73.40
74657;DHT22;63185;45.642;13.764;2022-11-03T13:49:49;20.30;73.40
74657;DHT22;63185;45.642;13.764;2022-11-03T13:52:17;20.40;73.50
74657;DHT22;63185;45.642;13.764;2022-11-03T13:54:43;20.20;74.20
74657;DHT22;63185;45.642;13.764;2022-11-03T13:57:08;20.10;74.50
74657;DHT22;63185;45.642;13.764;2022-11-03T13:59:34;20.10;74.50
74657;DHT22;63185;45.642;13.764;2022-11-03T14:02:00;20.10;74.30
74657;DHT22;63185;45.642;13.764;2022-11-03T14:04:25;20.00;74.70
74657;DHT22;63185;45.642;13.764;2022-11-03T14:06:51;20.00;74.90
74657;DHT22;63185;45.642;13.764;2022-11-03T14:09:16;20.00;74.90
74657;DHT22;63185;45.642;13.764;2022-11-03T14:11:42;20.00;75.10
74657;DHT22;63185;45.642;13.764;2022-11-03T14:14:26;20.10;74.40
74657;DHT22;63185;45.642;13.764;2022-11-03T14:16:52;20.00;74.60
74657;DHT22;63185;45.642;13.764;2022-11-03T14:19:17;20.00;74.80
74657;DHT22;63185;45.642;13.764;2022-11-03T14:21:43;20.10;74.70
74657;DHT22;63185;45.642;13.764;2022-11-03T14:24:08;20.20;74.70
74657;DHT22;63185;45.642;13.764;2022-11-03T14:26:34;20.10;74.50
74657;DHT22;63185;45.642;13.764;2022-11-03T14:28:59;20.20;74.70
74657;DHT22;63185;45.642;13.764;2022-11-03T14:31:25;20.20;74.80
74657;DHT22;63185;45.642;13.764;2022-11-03T14:33:50;20.30;74.50
74657;DHT22;63185;45.642;13.764;2022-11-03T14:36:16;20.30;74.60
74657;DHT22;63185;45.642;13.764;2022-11-03T14:38:41;20.30;74.40
74657;DHT22;63185;45.642;13.764;2022-11-03T14:41:07;20.10;74.80
74657;DHT22;63185;45.642;13.764;2022-11-03T14:43:51;20.10;75.00
74657;DHT22;63185;45.642;13.764;2022-11-03T14:46:17;20.00;75.50
74657;DHT22;63185;45.642;13.764;2022-11-03T14:48:42;20.10;75.70
74657;DHT22;63185;45.642;13.764;2022-11-03T14:51:08;20.10;75.20
74657;DHT22;63185;45.642;13.764;2022-11-03T14:53:33;20.00;75.40
74657;DHT22;63185;45.642;13.764;2022-11-03T14:55:59;20.00;75.90
74657;DHT22;63185;45.642;13.764;2022-11-03T14:58:25;20.10;75.70
74657;DHT22;63185;45.642;13.764;2022-11-03T15:00:50;19.90;75.40
74657;DHT22;63185;45.642;13.764;2022-11-03T15:03:16;19.90;75.70
74657;DHT22;63185;45.642;13.764;2022-11-03T15:05:41;19.90;75.70
74657;DHT22;63185;45.642;13.764;2022-11-03T15:08:11;19.80;75.70
74657;DHT22;63185;45.642;13.764;2022-11-03T15:10:36;19.80;75.80
74657;DHT22;63185;45.642;13.764;2022-11-03T15:13:02;19.80;76.10
74657;DHT22;63185;45.642;13.764;2022-11-03T15:15:27;19.80;76.20
74657;DHT22;63185;45.642;13.764;2022-11-03T15:17:53;19.70;76.10
74657;DHT22;63185;45.642;13.764;2022-11-03T15:20:18;19.60;76.70
74657;DHT22;63185;45.642;13.764;2022-11-03T15:22:44;19.60;76.40
74657;DHT22;63185;45.642;13.764;2022-11-03T15:25:10;19.60;76.70
74657;DHT22;63185;45.642;13.764;2022-11-03T15:27:36;19.60;76.90
74657;DHT22;63185;45.642;13.764;2022-11-03T15:30:06;19.60;77.40
74657;DHT22;63185;45.642;13.764;2022-11-03T15:32:32;19.50;77.50
74657;DHT22;63185;45.642;13.764;2022-11-03T15:34:57;19.50;77.60
74657;DHT22;63185;45.642;13.764;2022-11-03T15:37:23;19.50;77.90
74657;DHT22;63185;45.642;13.764;2022-11-03T15:39:49;19.50;78.10
74657;DHT22;63185;45.642;13.764;2022-11-03T15:42:15;19.50;78.20
74657;DHT22;63185;45.642;13.764;2022-11-03T15:44:40;19.50;78.00
74657;DHT22;63185;45.642;13.764;2022-11-03T15:47:06;19.50;78.10
74657;DHT22;63185;45.642;13.764;2022-11-03T15:49:31;19.60;77.90
74657;DHT22;63185;45.642;13.764;2022-11-03T15:51:57;19.50;77.90
74657;DHT22;63185;45.642;13.764;2022-11-03T15:54:22;19.50;77.90
74657;DHT22;63185;45.642;13.764;2022-11-03T15:56:48;19.50;78.00
74657;DHT22;63185;45.642;13.764;2022-11-03T15:59:14;19.40;78.00
74657;DHT22;63185;45.642;13.764;2022-11-03T16:01:39;19.30;78.20
74657;DHT22;63185;45.642;13.764;2022-11-03T16:04:05;19.30;78.40
74657;DHT22;63185;45.642;13.764;2022-11-03T16:06:31;19.30;78.60
74657;DHT22;63185;45.642;13.764;2022-11-03T16:08:56;19.30;79.00
74657;DHT22;63185;45.642;13.764;2022-11-03T16:11:22;19.30;79.20
74657;DHT22;63185;45.642;13.764;2022-11-03T16:13:47;19.30;79.20
74657;DHT22;63185;45.642;13.764;2022-11-03T16:16:13;19.20;79.20
74657;DHT22;63185;45.642;13.764;2022-11-03T16:18:38;19.20;79.20
74657;DHT22;63185;45.642;13.764;2022-11-03T16:21:04;19.20;79.10
74657;DHT22;63185;45.642;13.764;2022-11-03T16:23:30;19.20;79.10
74657;DHT22;63185;45.642;13.764;2022-11-03T16:25:55;19.20;79.10
74657;DHT22;63185;45.642;13.764;2022-11-03T16:28:21;19.10;79.10